Dades meteomassalio
Diari Summary for Maig 17, 2017 Units:  Metric    English   Both
« Previous Day
Next Day »
Diari Semanal Mensual Anual Personalitzat
  Maxima: Minima: Mijana:
Temperatura: 29.8 °C 10.3 °C 21.1 °C
Rosada: 13.2 °C 4.1 °C 8.3 °C
Humitat: 71 % 20 % 46 %
Velocitat del vent: 31.5 km/h 0.0 km/h 7.9 km/h
Racha vent: 31.5 km/h - -
Vent:- - SE
Pressio: 1022.6 hPa 1014.1 hPa -
Pluja: 0.0 mm    
Historical Graphs
 
 
Tabular Data for Maig 17, 2017
Time Temperature Dew Point Pressure Wind Wind Speed Wind Gust Humidity Rainfall Rate (Hourly) solar Conditions
00:02 21.2 °C 7.0 °C 1022.2 hPa Calm     40 % 0.0 mm 0.0 W/m2 CLR
00:07 21.1 °C 7.0 °C 1022.6 hPa Calm     40 % 0.0 mm 0.0 W/m2 CLR
00:12 20.9 °C 7.2 °C 1022.2 hPa Calm     41 % 0.0 mm 0.0 W/m2 CLR
00:17 20.7 °C 7.3 °C 1022.2 hPa Calm     42 % 0.0 mm 0.0 W/m2 CLR
00:18 20.7 °C 7.3 °C 1022.2 hPa Calm     42 % 0.0 mm 0.0 W/m2 CLR
00:23 20.4 °C 7.4 °C 1022.2 hPa Calm     43 % 0.0 mm 0.0 W/m2 CLR
00:28 20.1 °C 7.1 °C 1022.2 hPa Calm     43 % 0.0 mm 0.0 W/m2 CLR
00:33 20.0 °C 7.1 °C 1022.2 hPa Calm     43 % 0.0 mm 0.0 W/m2 CLR
00:38 19.9 °C 6.9 °C 1022.2 hPa Calm     43 % 0.0 mm 0.0 W/m2 CLR
00:43 19.7 °C 7.8 °C 1022.2 hPa Calm     46 % 0.0 mm 0.0 W/m2 CLR
00:48 19.3 °C 7.4 °C 1022.2 hPa Calm     46 % 0.0 mm 0.0 W/m2 CLR
00:53 19.1 °C 7.2 °C 1022.2 hPa Calm     46 % 0.0 mm 0.0 W/m2 CLR
00:58 18.8 °C 6.9 °C 1022.2 hPa Calm     46 % 0.0 mm 0.0 W/m2 CLR
01:03 18.7 °C 7.2 °C 1022.2 hPa Calm     47 % 0.0 mm 0.0 W/m2 CLR
01:08 18.6 °C 7.1 °C 1022.2 hPa Calm     47 % 0.0 mm 0.0 W/m2 CLR
01:13 18.4 °C 7.2 °C 1022.2 hPa Calm     48 % 0.0 mm 0.0 W/m2 CLR
01:18 18.1 °C 7.2 °C 1022.2 hPa Calm     49 % 0.0 mm 0.0 W/m2 CLR
01:23 17.8 °C 7.3 °C 1022.2 hPa Calm     50 % 0.0 mm 0.0 W/m2 CLR
01:28 17.5 °C 7.2 °C 1022.2 hPa Calm     51 % 0.0 mm 0.0 W/m2 CLR
01:33 17.3 °C 6.8 °C 1022.2 hPa Calm     50 % 0.0 mm 0.0 W/m2 CLR
01:38 17.2 °C 6.4 °C 1022.2 hPa Calm     49 % 0.0 mm 0.0 W/m2 CLR
01:43 17.2 °C 6.4 °C 1022.2 hPa Calm     49 % 0.0 mm 0.0 W/m2 CLR
01:48 17.2 °C 6.1 °C 1022.2 hPa Calm     48 % 0.0 mm 0.0 W/m2 CLR
01:53 17.3 °C 6.2 °C 1022.2 hPa Calm     48 % 0.0 mm 0.0 W/m2 CLR
01:58 17.3 °C 5.8 °C 1021.9 hPa Calm     47 % 0.0 mm 0.0 W/m2 CLR
02:03 17.2 °C 5.8 °C 1022.2 hPa Calm     47 % 0.0 mm 0.0 W/m2 CLR
02:08 17.2 °C 6.4 °C 1021.9 hPa Calm     49 % 0.0 mm 0.0 W/m2 CLR
02:13 17.1 °C 5.9 °C 1021.9 hPa Calm     48 % 0.0 mm 0.0 W/m2 CLR
02:18 16.8 °C 6.9 °C 1021.9 hPa Calm     52 % 0.0 mm 0.0 W/m2 CLR
02:23 16.5 °C 7.2 °C 1021.9 hPa Calm     54 % 0.0 mm 0.0 W/m2 CLR
02:28 16.2 °C 6.9 °C 1021.9 hPa Calm     54 % 0.0 mm 0.0 W/m2 CLR
02:33 15.9 °C 6.6 °C 1021.9 hPa Calm     54 % 0.0 mm 0.0 W/m2 CLR
02:38 15.6 °C 6.6 °C 1021.9 hPa Calm     55 % 0.0 mm 0.0 W/m2 CLR
02:43 15.3 °C 6.8 °C 1021.9 hPa Calm     57 % 0.0 mm 0.0 W/m2 CLR
02:48 15.1 °C 6.8 °C 1021.9 hPa Calm     58 % 0.0 mm 0.0 W/m2 CLR
02:53 14.8 °C 6.9 °C 1021.9 hPa Calm     59 % 0.0 mm 0.0 W/m2 CLR
02:58 14.6 °C 6.7 °C 1021.9 hPa Calm     59 % 0.0 mm 0.0 W/m2 CLR
03:03 14.5 °C 6.8 °C 1021.9 hPa Calm     60 % 0.0 mm 0.0 W/m2 CLR
03:08 14.4 °C 6.9 °C 1021.9 hPa Calm     61 % 0.0 mm 0.0 W/m2 CLR
03:13 14.2 °C 6.6 °C 1021.6 hPa Calm     60 % 0.0 mm 0.0 W/m2 CLR
03:18 14.0 °C 6.6 °C 1021.6 hPa Calm     61 % 0.0 mm 0.0 W/m2 CLR
03:23 13.8 °C 6.7 °C 1021.6 hPa Calm     62 % 0.0 mm 0.0 W/m2 CLR
03:28 13.7 °C 6.8 °C 1021.6 hPa Calm     63 % 0.0 mm 0.0 W/m2 CLR
03:33 13.7 °C 6.7 °C 1021.6 hPa Calm     63 % 0.0 mm 0.0 W/m2 CLR
03:38 13.5 °C 6.6 °C 1021.2 hPa Calm     63 % 0.0 mm 0.0 W/m2 CLR
03:43 13.4 °C 6.5 °C 1021.2 hPa Calm     63 % 0.0 mm 0.0 W/m2 CLR
03:48 13.2 °C 6.6 °C 1021.2 hPa Calm     64 % 0.0 mm 0.0 W/m2 CLR
03:53 13.2 °C 6.5 °C 1021.2 hPa Calm     64 % 0.0 mm 0.0 W/m2 CLR
03:58 13.1 °C 6.4 °C 1021.2 hPa Calm     64 % 0.0 mm 0.0 W/m2 CLR
04:03 13.1 °C 6.4 °C 1021.2 hPa Calm     64 % 0.0 mm 0.0 W/m2 CLR
04:08 13.1 °C 6.6 °C 1021.2 hPa Calm     65 % 0.0 mm 0.0 W/m2 CLR
04:13 12.8 °C 6.4 °C 1021.2 hPa Calm     65 % 0.0 mm 0.0 W/m2 CLR
04:18 12.7 °C 6.5 °C 1021.2 hPa Calm     66 % 0.0 mm 0.0 W/m2 CLR
04:23 12.7 °C 6.5 °C 1021.2 hPa Calm     66 % 0.0 mm 0.0 W/m2 CLR
04:28 12.6 °C 6.2 °C 1021.2 hPa Calm     65 % 0.0 mm 0.0 W/m2 CLR
04:33 12.5 °C 6.3 °C 1021.2 hPa Calm     66 % 0.0 mm 0.0 W/m2 CLR
04:38 12.4 °C 6.3 °C 1021.2 hPa Calm     66 % 0.0 mm 0.0 W/m2 CLR
04:43 12.3 °C 6.2 °C 1021.2 hPa Calm     66 % 0.0 mm 0.0 W/m2 CLR
04:48 12.2 °C 6.3 °C 1021.2 hPa Calm     67 % 0.0 mm 0.0 W/m2 CLR
04:53 12.1 °C 6.2 °C 1020.9 hPa Calm     67 % 0.0 mm 0.0 W/m2 CLR
04:54 12.1 °C 6.1 °C 1020.9 hPa Calm     67 % 0.0 mm 0.0 W/m2 CLR
04:59 11.9 °C 6.2 °C 1020.9 hPa Calm     68 % 0.0 mm 0.0 W/m2 CLR
05:04 11.9 °C 6.2 °C 1020.9 hPa Calm     68 % 0.0 mm 0.0 W/m2 CLR
05:09 11.8 °C 6.1 °C 1020.9 hPa Calm     68 % 0.0 mm 0.0 W/m2 CLR
05:14 11.7 °C 6.0 °C 1020.9 hPa Calm     68 % 0.0 mm 0.0 W/m2 CLR
05:19 11.7 °C 5.9 °C 1020.9 hPa Calm     68 % 0.0 mm 0.0 W/m2 CLR
05:24 11.6 °C 6.1 °C 1020.9 hPa Calm     69 % 0.0 mm 0.0 W/m2 CLR
05:29 11.5 °C 6.0 °C 1020.9 hPa Calm     69 % 0.0 mm 0.0 W/m2 CLR
05:34 11.4 °C 5.9 °C 1020.9 hPa Calm     69 % 0.0 mm 0.0 W/m2 CLR
05:39 11.3 °C 5.8 °C 1020.9 hPa Calm     69 % 0.0 mm 0.0 W/m2 CLR
05:44 11.2 °C 5.9 °C 1020.9 hPa Calm     70 % 0.0 mm 0.0 W/m2 CLR
05:49 11.1 °C 5.8 °C 1020.9 hPa Calm     70 % 0.0 mm 0.0 W/m2 CLR
05:54 11.1 °C 5.8 °C 1020.9 hPa Calm     70 % 0.0 mm 0.0 W/m2 CLR
05:59 10.9 °C 5.7 °C 1020.9 hPa Calm     70 % 0.0 mm 0.0 W/m2 CLR
06:04 10.9 °C 5.6 °C 1020.9 hPa Calm     70 % 0.0 mm 0.0 W/m2 CLR
06:09 10.8 °C 5.7 °C 1020.9 hPa Calm     71 % 0.0 mm 0.0 W/m2 CLR
06:14 10.7 °C 5.7 °C 1020.9 hPa Calm     71 % 0.0 mm 0.0 W/m2 CLR
06:19 10.7 °C 5.7 °C 1020.9 hPa Calm     71 % 0.0 mm 0.0 W/m2 CLR
06:24 10.7 °C 5.4 °C 1021.2 hPa Calm     70 % 0.0 mm 0.0 W/m2 CLR
06:29 10.7 °C 5.4 °C 1020.9 hPa Calm     70 % 0.0 mm 0.0 W/m2 OVC
06:34 10.6 °C 5.4 °C 1020.9 hPa Calm     70 % 0.0 mm 5.0 W/m2 OVC
06:39 10.6 °C 5.3 °C 1020.9 hPa Calm     70 % 0.0 mm 5.0 W/m2 OVC
06:44 10.5 °C 5.3 °C 1020.9 hPa Calm     70 % 0.0 mm 7.0 W/m2 BKN
06:49 10.4 °C 5.4 °C 1020.9 hPa Calm     71 % 0.0 mm 12.0 W/m2 BKN
06:54 10.4 °C 5.2 °C 1020.9 hPa Calm     70 % 0.0 mm 18.0 W/m2 BKN
06:59 10.4 °C 5.3 °C 1020.9 hPa Calm     71 % 0.0 mm 23.0 W/m2 BKN
07:04 10.3 °C 5.3 °C 1020.9 hPa Calm     71 % 0.0 mm 28.0 W/m2 BKN
07:09 10.4 °C 5.3 °C 1020.9 hPa Calm     71 % 0.0 mm 30.0 W/m2 BKN
07:14 10.5 °C 5.3 °C 1020.9 hPa Calm     70 % 0.0 mm 33.0 W/m2 BKN
07:19 10.6 °C 5.1 °C 1020.9 hPa Calm     69 % 0.0 mm 39.0 W/m2 BKN
07:24 10.8 °C 5.3 °C 1020.9 hPa Calm     69 % 0.0 mm 40.0 W/m2 BKN
07:29 11.0 °C 5.3 °C 1020.9 hPa Calm     68 % 0.0 mm 54.0 W/m2 SCT
07:34 11.2 °C 5.5 °C 1020.5 hPa Calm     68 % 0.0 mm 69.0 W/m2 FEW
07:39 11.4 °C 5.5 °C 1020.9 hPa Calm     67 % 0.0 mm 76.0 W/m2 FEW
07:44 11.6 °C 5.6 °C 1020.9 hPa Calm     67 % 0.0 mm 100.0 W/m2 FEW
07:49 11.8 °C 5.6 °C 1020.9 hPa Calm     66 % 0.0 mm 120.0 W/m2 CLR
07:54 12.1 °C 5.9 °C 1020.9 hPa Calm     66 % 0.0 mm 132.0 W/m2 CLR
07:59 12.6 °C 6.4 °C 1020.9 hPa Calm     66 % 0.0 mm 163.0 W/m2 CLR
08:04 13.0 °C 6.3 °C 1020.5 hPa Calm     64 % 0.0 mm 179.0 W/m2 CLR
08:09 13.4 °C 6.0 °C 1020.5 hPa Calm     61 % 0.0 mm 209.0 W/m2 CLR
08:14 13.9 °C 6.5 °C 1020.5 hPa Calm     61 % 0.0 mm 216.0 W/m2 CLR
08:19 14.2 °C 6.6 °C 1020.5 hPa Calm     60 % 0.0 mm 251.0 W/m2 CLR
08:24 14.7 °C 6.8 °C 1020.5 hPa Calm     59 % 0.0 mm 269.0 W/m2 CLR
08:30 15.2 °C 7.0 °C 1020.5 hPa Calm     58 % 0.0 mm 288.0 W/m2 CLR
08:35 15.7 °C 7.2 °C 1020.5 hPa Calm     57 % 0.0 mm 290.0 W/m2 CLR
08:40 16.2 °C 7.4 °C 1020.5 hPa Calm     56 % 0.0 mm 294.0 W/m2 CLR
08:45 16.8 °C 7.7 °C 1020.5 hPa Calm     55 % 0.0 mm 257.0 W/m2 CLR
08:50 17.3 °C 7.9 °C 1020.5 hPa Calm     54 % 0.0 mm 364.0 W/m2 CLR
08:55 17.7 °C 8.6 °C 1020.5 hPa Calm     55 % 0.0 mm 345.0 W/m2 CLR
09:00 18.2 °C 10.1 °C 1020.5 hPa Calm     59 % 0.0 mm 371.0 W/m2 CLR
09:05 18.9 °C 9.9 °C 1020.5 hPa Calm     56 % 0.0 mm 387.0 W/m2 CLR
09:10 19.6 °C 10.3 °C 1020.5 hPa Calm     55 % 0.0 mm 387.0 W/m2 CLR
09:15 20.2 °C 10.3 °C 1020.2 hPa Calm     53 % 0.0 mm 397.0 W/m2 CLR
09:20 20.7 °C 11.3 °C 1020.2 hPa Calm     55 % 0.0 mm 357.0 W/m2 CLR
09:25 20.9 °C 11.5 °C 1020.2 hPa Calm     55 % 0.0 mm 480.0 W/m2 CLR
09:30 21.2 °C 11.8 °C 1020.2 hPa Calm     55 % 0.0 mm 374.0 W/m2 CLR
09:35 21.3 °C 11.6 °C 1019.9 hPa NE 1.9 km/h   54 % 0.0 mm 278.0 W/m2 CLR
09:37 21.3 °C 11.6 °C 1020.2 hPa Calm     54 % 0.0 mm 299.0 W/m2 CLR
09:42 21.4 °C 11.7 °C 1019.9 hPa Calm     54 % 0.0 mm 316.0 W/m2 CLR
09:47 21.6 °C 12.1 °C 1019.9 hPa Calm     55 % 0.0 mm 292.0 W/m2 CLR
09:52 21.8 °C 12.6 °C 1019.9 hPa Calm     56 % 0.0 mm 311.0 W/m2 CLR
09:57 22.2 °C 12.7 °C 1019.9 hPa Calm     55 % 0.0 mm 334.0 W/m2 CLR
10:02 22.4 °C 12.6 °C 1019.9 hPa Calm     54 % 0.0 mm 376.0 W/m2 CLR
10:07 22.7 °C 12.7 °C 1019.9 hPa Calm     53 % 0.0 mm 517.0 W/m2 CLR
10:12 23.1 °C 12.7 °C 1019.9 hPa Calm     52 % 0.0 mm 533.0 W/m2 CLR
10:17 23.4 °C 12.7 °C 1019.9 hPa ENE 7.4 km/h 7.4 km/h 51 % 0.0 mm 554.0 W/m2 CLR
10:22 23.8 °C 12.7 °C 1019.5 hPa ENE 8.0 km/h 8.0 km/h 50 % 0.0 mm 633.0 W/m2 CLR
10:27 24.2 °C 12.2 °C 1019.5 hPa ENE 5.6 km/h   47 % 0.0 mm 612.0 W/m2 CLR
10:32 24.5 °C 10.4 °C 1019.5 hPa ESE 8.0 km/h 8.0 km/h 41 % 0.0 mm 591.0 W/m2 CLR
10:37 24.5 °C 10.0 °C 1019.5 hPa Calm     40 % 0.0 mm 694.0 W/m2 CLR
10:42 24.6 °C 11.6 °C 1019.5 hPa East 4.8 km/h 4.8 km/h 44 % 0.0 mm 677.0 W/m2 CLR
10:47 25.2 °C 11.3 °C 1019.5 hPa ENE 7.4 km/h 7.4 km/h 42 % 0.0 mm 675.0 W/m2 CLR
10:52 25.4 °C 11.2 °C 1019.5 hPa Calm   2.3 km/h 41 % 0.0 mm 330.0 W/m2 CLR
10:57 25.1 °C 10.2 °C 1019.2 hPa ESE 6.4 km/h 6.4 km/h 39 % 0.0 mm 295.0 W/m2 CLR
11:02 25.0 °C 10.1 °C 1019.2 hPa ENE 6.4 km/h 6.4 km/h 39 % 0.0 mm 350.0 W/m2 CLR
11:07 25.2 °C 10.2 °C 1019.2 hPa ENE 9.3 km/h 9.3 km/h 39 % 0.0 mm 691.0 W/m2 CLR
11:12 25.4 °C 10.4 °C 1019.2 hPa East 14.8 km/h 14.8 km/h 39 % 0.0 mm 791.0 W/m2 CLR
11:17 25.5 °C 10.5 °C 1019.2 hPa East 11.1 km/h 11.1 km/h 39 % 0.0 mm 645.0 W/m2 CLR
11:22 25.4 °C 9.7 °C 1019.2 hPa ESE 9.7 km/h 9.7 km/h 37 % 0.0 mm 489.0 W/m2 CLR
11:27 25.6 °C 9.0 °C 1018.8 hPa ESE 9.7 km/h 9.7 km/h 35 % 0.0 mm 522.0 W/m2 CLR
11:32 25.7 °C 9.5 °C 1018.8 hPa East 5.6 km/h 5.6 km/h 36 % 0.0 mm 621.0 W/m2 CLR
11:37 26.0 °C 9.8 °C 1018.8 hPa East 9.7 km/h 9.7 km/h 36 % 0.0 mm 585.0 W/m2 CLR
11:42 26.0 °C 9.3 °C 1018.8 hPa ESE 9.7 km/h 9.7 km/h 35 % 0.0 mm 605.0 W/m2 CLR
11:47 26.3 °C 9.2 °C 1018.8 hPa ESE 16.7 km/h 16.7 km/h 34 % 0.0 mm 663.0 W/m2 CLR
11:52 26.2 °C 8.6 °C 1018.5 hPa SE 14.8 km/h 14.8 km/h 33 % 0.0 mm 591.0 W/m2 CLR
11:57 26.1 °C 9.4 °C 1018.5 hPa East 9.3 km/h 9.3 km/h 35 % 0.0 mm 550.0 W/m2 CLR
12:02 26.3 °C 9.6 °C 1018.5 hPa SE 11.3 km/h 11.3 km/h 35 % 0.0 mm 684.0 W/m2 CLR
12:07 26.3 °C 9.2 °C 1018.5 hPa ESE 16.7 km/h 16.7 km/h 34 % 0.0 mm 682.0 W/m2 CLR
12:12 26.5 °C 10.2 °C 1018.5 hPa East 14.8 km/h 14.8 km/h 36 % 0.0 mm 870.0 W/m2 CLR
12:17 26.7 °C 9.6 °C 1018.5 hPa East 11.1 km/h 11.1 km/h 34 % 0.0 mm 381.0 W/m2 CLR
12:22 26.7 °C 9.5 °C 1018.5 hPa ENE 8.0 km/h 8.0 km/h 34 % 0.0 mm 1164.0 W/m2 CLR
12:27 27.0 °C 9.8 °C 1018.2 hPa East 9.3 km/h 9.3 km/h 34 % 0.0 mm 1194.0 W/m2 CLR
12:32 27.5 °C 10.7 °C 1018.2 hPa ENE 9.7 km/h 9.7 km/h 35 % 0.0 mm 1039.0 W/m2 CLR
12:37 27.9 °C 11.4 °C 1018.2 hPa NE 16.1 km/h 16.1 km/h 36 % 0.0 mm 1134.0 W/m2 CLR
12:42 28.2 °C 10.4 °C 1018.2 hPa ENE 16.7 km/h 16.7 km/h 33 % 0.0 mm 1146.0 W/m2 CLR
12:47 28.0 °C 9.8 °C 1018.2 hPa ESE 8.0 km/h 8.0 km/h 32 % 0.0 mm 448.0 W/m2 CLR
12:52 27.2 °C 10.8 °C 1018.2 hPa ESE 13.0 km/h 13.0 km/h 36 % 0.0 mm 404.0 W/m2 CLR
12:57 26.8 °C 10.9 °C 1017.8 hPa ENE 12.9 km/h 12.9 km/h 37 % 0.0 mm 404.0 W/m2 CLR
13:02 26.9 °C 11.4 °C 1017.8 hPa ENE 16.7 km/h 16.7 km/h 38 % 0.0 mm 469.0 W/m2 CLR
13:07 26.5 °C 12.6 °C 1017.5 hPa ENE 14.8 km/h 14.8 km/h 42 % 0.0 mm 348.0 W/m2 CLR
13:12 26.7 °C 13.1 °C 1017.5 hPa East 16.7 km/h 16.7 km/h 43 % 0.0 mm 267.0 W/m2 CLR
13:17 26.8 °C 13.2 °C 1017.5 hPa ENE 16.1 km/h 16.1 km/h 43 % 0.0 mm 988.0 W/m2 CLR
13:22 26.9 °C 12.2 °C 1017.5 hPa East 13.0 km/h 13.0 km/h 40 % 0.0 mm 974.0 W/m2 CLR
13:27 27.4 °C 12.9 °C 1017.2 hPa ENE 18.5 km/h 18.5 km/h 41 % 0.0 mm 795.0 W/m2 CLR
13:32 27.7 °C 11.7 °C 1017.2 hPa ENE 22.2 km/h 22.2 km/h 37 % 0.0 mm 700.0 W/m2 CLR
13:37 28.1 °C 11.6 °C 1017.2 hPa NNE 3.7 km/h 3.7 km/h 36 % 0.0 mm 895.0 W/m2 CLR
13:42 28.8 °C 8.5 °C 1017.2 hPa South 24.1 km/h 24.1 km/h 28 % 0.0 mm 928.0 W/m2 CLR
13:47 29.0 °C 6.4 °C 1016.8 hPa SW 11.1 km/h 11.1 km/h 24 % 0.0 mm 947.0 W/m2 CLR
13:52 29.1 °C 5.8 °C 1016.8 hPa South 20.4 km/h 20.4 km/h 23 % 0.0 mm 954.0 W/m2 CLR
13:57 28.7 °C 6.2 °C 1016.8 hPa ESE 24.1 km/h 24.1 km/h 24 % 0.0 mm 969.0 W/m2 CLR
14:02 28.9 °C 6.3 °C 1016.8 hPa South 22.2 km/h 22.2 km/h 24 % 0.0 mm 962.0 W/m2 CLR
14:07 29.1 °C 6.4 °C 1016.8 hPa SE 22.5 km/h 22.5 km/h 24 % 0.0 mm 942.0 W/m2 CLR
14:12 29.1 °C 5.8 °C 1016.5 hPa South 18.5 km/h 18.5 km/h 23 % 0.0 mm 904.0 W/m2 CLR
14:17 29.2 °C 4.6 °C 1016.5 hPa SSW 13.0 km/h 13.0 km/h 21 % 0.0 mm 937.0 W/m2 CLR
14:22 29.6 °C 4.2 °C 1016.8 hPa SW 25.9 km/h 25.9 km/h 20 % 0.0 mm 925.0 W/m2 CLR
14:27 29.4 °C 4.1 °C 1016.5 hPa South 9.7 km/h 9.7 km/h 20 % 0.0 mm 926.0 W/m2 CLR
14:32 29.5 °C 4.9 °C 1016.5 hPa SSE 16.7 km/h 16.7 km/h 21 % 0.0 mm 919.0 W/m2 CLR
14:37 29.8 °C 5.1 °C 1016.5 hPa SSW 20.9 km/h 20.9 km/h 21 % 0.0 mm 868.0 W/m2 CLR
14:42 29.7 °C 4.3 °C 1016.5 hPa South 11.1 km/h 11.1 km/h 20 % 0.0 mm 819.0 W/m2 CLR
14:47 29.5 °C 4.2 °C 1016.5 hPa South 11.3 km/h 11.3 km/h 20 % 0.0 mm 810.0 W/m2 CLR
14:52 29.4 °C 6.1 °C 1016.5 hPa SSW 14.8 km/h 14.8 km/h 23 % 0.0 mm 788.0 W/m2 CLR
14:57 29.4 °C 6.1 °C 1016.1 hPa South 16.7 km/h 16.7 km/h 23 % 0.0 mm 738.0 W/m2 CLR
15:02 29.2 °C 7.2 °C 1016.1 hPa South 18.5 km/h 18.5 km/h 25 % 0.0 mm 613.0 W/m2 CLR
15:07 28.9 °C 6.9 °C 1016.1 hPa South 24.1 km/h 24.1 km/h 25 % 0.0 mm 577.0 W/m2 CLR
15:12 28.9 °C 8.6 °C 1016.1 hPa South 29.6 km/h 29.6 km/h 28 % 0.0 mm 577.0 W/m2 CLR
15:17 28.4 °C 8.6 °C 1016.1 hPa South 18.5 km/h 18.5 km/h 29 % 0.0 mm 524.0 W/m2 CLR
15:22 28.3 °C 9.6 °C 1016.1 hPa South 25.9 km/h 25.9 km/h 31 % 0.0 mm 527.0 W/m2 CLR
15:27 28.3 °C 9.6 °C 1016.1 hPa SE 25.7 km/h 25.7 km/h 31 % 0.0 mm 473.0 W/m2 CLR
15:32 28.0 °C 9.3 °C 1016.1 hPa SSE 25.9 km/h 25.9 km/h 31 % 0.0 mm 443.0 W/m2 CLR
15:37 27.4 °C 9.3 °C 1016.1 hPa SE 31.5 km/h 31.5 km/h 32 % 0.0 mm 417.0 W/m2 CLR
15:43 27.3 °C 9.7 °C 1016.1 hPa South 25.7 km/h 25.7 km/h 33 % 0.0 mm 404.0 W/m2 CLR
15:48 27.4 °C 9.2 °C 1015.8 hPa South 20.4 km/h 20.4 km/h 32 % 0.0 mm 403.0 W/m2 CLR
15:53 27.3 °C 9.1 °C 1015.8 hPa South 31.5 km/h 31.5 km/h 32 % 0.0 mm 390.0 W/m2 CLR
15:58 27.3 °C 8.7 °C 1015.8 hPa SE 18.5 km/h 18.5 km/h 31 % 0.0 mm 388.0 W/m2 CLR
16:03 27.4 °C 9.2 °C 1015.5 hPa South 27.8 km/h 27.8 km/h 32 % 0.0 mm 401.0 W/m2 CLR
16:08 27.1 °C 9.0 °C 1015.8 hPa SE 24.1 km/h 24.1 km/h 32 % 0.0 mm 404.0 W/m2 CLR
16:13 27.1 °C 8.9 °C 1015.8 hPa SE 29.6 km/h 29.6 km/h 32 % 0.0 mm 399.0 W/m2 CLR
16:18 26.9 °C 8.8 °C 1015.8 hPa South 27.8 km/h 27.8 km/h 32 % 0.0 mm 381.0 W/m2 CLR
16:23 27.1 °C 9.4 °C 1015.8 hPa South 16.7 km/h 16.7 km/h 33 % 0.0 mm 367.0 W/m2 CLR
16:28 26.9 °C 9.3 °C 1015.5 hPa SE 16.7 km/h 16.7 km/h 33 % 0.0 mm 357.0 W/m2 CLR
16:33 27.1 °C 9.4 °C 1015.5 hPa South 13.0 km/h 13.0 km/h 33 % 0.0 mm 353.0 W/m2 CLR
16:38 27.0 °C 8.9 °C 1015.5 hPa South 20.4 km/h 20.4 km/h 32 % 0.0 mm 373.0 W/m2 CLR
16:43 27.0 °C 10.2 °C 1015.5 hPa South 18.5 km/h 20.1 km/h 35 % 0.0 mm 352.0 W/m2 CLR
16:48 26.4 °C 10.2 °C 1015.5 hPa SSE 25.9 km/h 25.9 km/h 36 % 0.0 mm 334.0 W/m2 CLR
16:53 26.3 °C 10.0 °C 1015.5 hPa ESE 25.9 km/h 25.9 km/h 36 % 0.0 mm 325.0 W/m2 CLR
16:58 26.2 °C 9.9 °C 1015.5 hPa SE 25.7 km/h 25.7 km/h 36 % 0.0 mm 362.0 W/m2 CLR
17:03 26.3 °C 10.0 °C 1015.1 hPa SE 18.5 km/h 18.5 km/h 36 % 0.0 mm 434.0 W/m2 CLR
17:08 26.5 °C 9.8 °C 1015.1 hPa SE 18.5 km/h 18.5 km/h 35 % 0.0 mm 668.0 W/m2 CLR
17:13 26.6 °C 8.9 °C 1015.1 hPa South 20.4 km/h 20.4 km/h 33 % 0.0 mm 615.0 W/m2 CLR
17:18 26.6 °C 9.9 °C 1015.1 hPa SE 20.9 km/h 20.9 km/h 35 % 0.0 mm 534.0 W/m2 CLR
17:20 26.5 °C 10.2 °C 1014.8 hPa SE 30.6 km/h 30.6 km/h 36 % 0.0 mm 471.0 W/m2 CLR
17:25 26.3 °C 10.1 °C 1015.1 hPa SE 14.8 km/h 14.8 km/h 36 % 0.0 mm 469.0 W/m2 CLR
17:30 26.3 °C 9.7 °C 1014.8 hPa South 14.8 km/h 14.8 km/h 35 % 0.0 mm 420.0 W/m2 CLR
17:35 26.3 °C 9.7 °C 1014.8 hPa ESE 22.2 km/h 22.2 km/h 35 % 0.0 mm 432.0 W/m2 CLR
17:40 26.3 °C 9.7 °C 1014.8 hPa SE 20.4 km/h 20.4 km/h 35 % 0.0 mm 388.0 W/m2 CLR
17:45 26.3 °C 9.7 °C 1014.8 hPa SE 20.4 km/h 20.4 km/h 35 % 0.0 mm 439.0 W/m2 CLR
17:50 26.3 °C 9.7 °C 1014.8 hPa SE 18.5 km/h 18.5 km/h 35 % 0.0 mm 478.0 W/m2 CLR
17:55 26.5 °C 9.3 °C 1014.8 hPa SE 18.5 km/h 18.5 km/h 34 % 0.0 mm 417.0 W/m2 CLR
18:00 26.4 °C 9.3 °C 1014.8 hPa SSE 16.7 km/h 16.7 km/h 34 % 0.0 mm 448.0 W/m2 CLR
18:05 26.7 °C 9.6 °C 1014.8 hPa SE 22.2 km/h 22.2 km/h 34 % 0.0 mm 411.0 W/m2 CLR
18:10 26.6 °C 9.4 °C 1014.8 hPa SE 11.1 km/h 11.1 km/h 34 % 0.0 mm 436.0 W/m2 CLR
18:15 26.6 °C 9.8 °C 1014.8 hPa SSE 18.5 km/h 18.5 km/h 35 % 0.0 mm 434.0 W/m2 CLR
18:20 26.7 °C 9.9 °C 1014.8 hPa SE 18.5 km/h 18.5 km/h 35 % 0.0 mm 573.0 W/m2 CLR
18:25 26.6 °C 9.8 °C 1014.4 hPa SE 18.5 km/h 18.5 km/h 35 % 0.0 mm 563.0 W/m2 CLR
18:30 26.8 °C 9.2 °C 1014.4 hPa SSE 22.5 km/h 22.5 km/h 33 % 0.0 mm 584.0 W/m2 CLR
18:35 26.9 °C 8.3 °C 1014.4 hPa SSW 18.5 km/h 18.5 km/h 31 % 0.0 mm 561.0 W/m2 CLR
18:40 27.1 °C 9.0 °C 1014.4 hPa SE 13.0 km/h 13.0 km/h 32 % 0.0 mm 504.0 W/m2 CLR
18:45 27.0 °C 7.9 °C 1014.4 hPa SSE 20.4 km/h 20.4 km/h 30 % 0.0 mm 455.0 W/m2 CLR
18:50 26.8 °C 8.3 °C 1014.4 hPa SE 18.5 km/h 18.5 km/h 31 % 0.0 mm 380.0 W/m2 CLR
18:55 26.6 °C 8.6 °C 1014.4 hPa SE 14.8 km/h 14.8 km/h 32 % 0.0 mm 390.0 W/m2 CLR
19:00 26.7 °C 8.2 °C 1014.4 hPa SSE 14.8 km/h 14.8 km/h 31 % 0.0 mm 360.0 W/m2 CLR
19:05 26.7 °C 8.1 °C 1014.4 hPa South 14.8 km/h 14.8 km/h 31 % 0.0 mm 313.0 W/m2 CLR
19:10 26.6 °C 8.1 °C 1014.4 hPa SSE 20.4 km/h 20.4 km/h 31 % 0.0 mm 292.0 W/m2 CLR
19:15 26.4 °C 8.4 °C 1014.4 hPa South 14.8 km/h 14.8 km/h 32 % 0.0 mm 301.0 W/m2 CLR
19:20 26.3 °C 8.3 °C 1014.1 hPa SSE 18.5 km/h 18.5 km/h 32 % 0.0 mm 295.0 W/m2 CLR
19:25 26.1 °C 8.1 °C 1014.1 hPa SSE 22.2 km/h 22.2 km/h 32 % 0.0 mm 278.0 W/m2 CLR
19:30 25.9 °C 8.4 °C 1014.1 hPa SSE 22.2 km/h 22.2 km/h 33 % 0.0 mm 216.0 W/m2 CLR
19:35 25.9 °C 7.9 °C 1014.1 hPa SSE 18.5 km/h 18.5 km/h 32 % 0.0 mm 232.0 W/m2 CLR
19:40 25.8 °C 8.3 °C 1014.1 hPa SE 18.5 km/h 18.5 km/h 33 % 0.0 mm 207.0 W/m2 CLR
19:45 25.7 °C 8.2 °C 1014.1 hPa SE 18.5 km/h 18.5 km/h 33 % 0.0 mm 125.0 W/m2 CLR
19:50 25.7 °C 8.2 °C 1014.1 hPa SSE 16.7 km/h 16.7 km/h 33 % 0.0 mm 51.0 W/m2 CLR
19:55 25.4 °C 8.4 °C 1014.1 hPa ESE 11.1 km/h 11.1 km/h 34 % 0.0 mm 44.0 W/m2 SCT
20:00 25.2 °C 8.2 °C 1014.1 hPa SE 14.8 km/h 14.8 km/h 34 % 0.0 mm 39.0 W/m2 BKN
20:05 25.1 °C 8.2 °C 1014.1 hPa SE 13.0 km/h 13.0 km/h 34 % 0.0 mm 35.0 W/m2 BKN
20:10 25.0 °C 8.4 °C 1014.1 hPa SSE 13.0 km/h 13.0 km/h 35 % 0.0 mm 32.0 W/m2 BKN
20:15 24.9 °C 8.0 °C 1014.1 hPa SSE 16.7 km/h 16.7 km/h 34 % 0.0 mm 46.0 W/m2 SCT
20:20 24.9 °C 8.4 °C 1014.1 hPa SE 11.1 km/h 11.1 km/h 35 % 0.0 mm 60.0 W/m2 FEW
20:25 24.8 °C 8.3 °C 1014.1 hPa SE 4.8 km/h   35 % 0.0 mm 28.0 W/m2 BKN
20:30 24.6 °C 8.9 °C 1014.1 hPa ESE 7.4 km/h 7.4 km/h 37 % 0.0 mm 25.0 W/m2 BKN
20:35 24.2 °C 9.7 °C 1014.1 hPa SSE 16.7 km/h 16.7 km/h 40 % 0.0 mm 21.0 W/m2 BKN
20:40 24.0 °C 9.9 °C 1014.1 hPa SSE 7.4 km/h 7.4 km/h 41 % 0.0 mm 19.0 W/m2 BKN
20:46 23.8 °C 9.7 °C 1014.1 hPa SE 11.1 km/h 11.1 km/h 41 % 0.0 mm 18.0 W/m2 BKN
20:51 23.6 °C 9.9 °C 1014.1 hPa SSE 9.3 km/h 9.3 km/h 42 % 0.0 mm 16.0 W/m2 BKN
20:56 23.4 °C 9.8 °C 1014.1 hPa SE 9.3 km/h 9.3 km/h 42 % 0.0 mm 14.0 W/m2 BKN
21:01 23.3 °C 10.0 °C 1014.1 hPa SSE 9.3 km/h 9.3 km/h 43 % 0.0 mm 11.0 W/m2 BKN
21:06 23.1 °C 9.8 °C 1014.1 hPa ESE 9.3 km/h 9.3 km/h 43 % 0.0 mm 7.0 W/m2 BKN
21:11 22.9 °C 10.1 °C 1014.1 hPa SSE 5.6 km/h 5.6 km/h 44 % 0.0 mm 5.0 W/m2 OVC
21:16 22.8 °C 10.2 °C 1014.1 hPa ESE 5.6 km/h 5.6 km/h 45 % 0.0 mm 0.0 W/m2 OVC
21:21 22.6 °C 10.1 °C 1014.1 hPa SE 8.0 km/h 8.0 km/h 45 % 0.0 mm 0.0 W/m2 OVC
21:26 22.4 °C 10.2 °C 1014.1 hPa SE 3.7 km/h   46 % 0.0 mm 0.0 W/m2 CLR
21:31 22.2 °C 10.1 °C 1014.1 hPa Calm     46 % 0.0 mm 0.0 W/m2 CLR
21:36 22.1 °C 10.2 °C 1014.1 hPa SSE 5.6 km/h 5.6 km/h 47 % 0.0 mm 0.0 W/m2 CLR
21:41 21.9 °C 10.1 °C 1014.1 hPa Calm     47 % 0.0 mm 0.0 W/m2 CLR
21:46 21.8 °C 9.9 °C 1014.1 hPa Calm     47 % 0.0 mm 0.0 W/m2 CLR
21:51 21.7 °C 10.2 °C 1014.4 hPa SE 5.6 km/h 5.6 km/h 48 % 0.0 mm 0.0 W/m2 CLR
21:56 21.6 °C 10.1 °C 1014.1 hPa SE 1.9 km/h 2.6 km/h 48 % 0.0 mm 0.0 W/m2 CLR
22:01 21.4 °C 10.0 °C 1014.1 hPa SSE 7.4 km/h 7.4 km/h 48 % 0.0 mm 0.0 W/m2 CLR
22:06 21.3 °C 9.9 °C 1014.1 hPa SE 7.4 km/h 7.4 km/h 48 % 0.0 mm 0.0 W/m2 CLR
22:11 21.2 °C 10.1 °C 1014.4 hPa Calm     49 % 0.0 mm 0.0 W/m2 CLR
22:16 21.1 °C 10.0 °C 1014.4 hPa SE 5.6 km/h 5.6 km/h 49 % 0.0 mm 0.0 W/m2 CLR
22:21 21.1 °C 9.9 °C 1014.4 hPa SSE 11.1 km/h 11.1 km/h 49 % 0.0 mm 0.0 W/m2 CLR
22:26 21.0 °C 9.9 °C 1014.4 hPa SE 13.0 km/h 13.0 km/h 49 % 0.0 mm 0.0 W/m2 CLR
22:31 20.9 °C 9.8 °C 1014.4 hPa South 5.6 km/h 5.6 km/h 49 % 0.0 mm 0.0 W/m2 CLR
22:36 20.9 °C 9.8 °C 1014.1 hPa South 11.3 km/h 11.3 km/h 49 % 0.0 mm 0.0 W/m2 CLR
22:41 20.9 °C 9.8 °C 1014.1 hPa South 9.3 km/h 9.3 km/h 49 % 0.0 mm 0.0 W/m2 CLR
22:46 20.9 °C 9.5 °C 1014.4 hPa South 9.3 km/h 9.3 km/h 48 % 0.0 mm 0.0 W/m2 CLR
22:51 21.0 °C 9.3 °C 1014.4 hPa SSW 13.0 km/h 13.0 km/h 47 % 0.0 mm 0.0 W/m2 CLR
22:56 21.1 °C 9.3 °C 1014.4 hPa SSE 14.8 km/h 14.8 km/h 47 % 0.0 mm 0.0 W/m2 CLR
23:01 21.1 °C 9.1 °C 1014.1 hPa SSE 14.8 km/h 14.8 km/h 46 % 0.0 mm 0.0 W/m2 CLR
23:06 21.1 °C 9.1 °C 1014.1 hPa SE 7.4 km/h 7.4 km/h 46 % 0.0 mm 0.0 W/m2 CLR
23:11 21.1 °C 8.7 °C 1014.1 hPa Calm     45 % 0.0 mm 0.0 W/m2 CLR
23:16 21.0 °C 8.9 °C 1014.1 hPa Calm     46 % 0.0 mm 0.0 W/m2 CLR
23:21 20.7 °C 9.0 °C 1014.1 hPa Calm     47 % 0.0 mm 0.0 W/m2 CLR
23:26 20.5 °C 9.1 °C 1014.1 hPa Calm     48 % 0.0 mm 0.0 W/m2 CLR
23:31 20.2 °C 9.4 °C 1014.1 hPa Calm     50 % 0.0 mm 0.0 W/m2 CLR
23:36 20.1 °C 8.4 °C 1014.1 hPa Calm     47 % 0.0 mm 0.0 W/m2 CLR
23:41 20.2 °C 8.6 °C 1014.1 hPa Calm     47 % 0.0 mm 0.0 W/m2 CLR
23:51 20.3 °C 8.3 °C 1014.1 hPa Calm     46 % 0.0 mm 0.0 W/m2 CLR
23:56 20.3 °C 8.0 °C 1014.1 hPa Calm     45 % 0.0 mm 0.0 W/m2 CLR
Lo Temps de Massalio
Compliments of Weather Underground - 1.25 mb